カンクン の空港の天気 - METARとTAF

カンクン国際空港 ( MMUN / CUN ) - メキシコ キンタナ・ロー州カンクン
飛行場実況気象(Metar)
観測時間10/19 22:48 CDT (10/20 03:48 UTC)
風向・風速南東 3m/s
視程10km以上
天気現象
全天の4割程度の雲 雲底高度 460m
全天の8割程度の雲 雲底高度 7620m
気温28℃
湿度84%
気圧1012hPa
METARMMUN 200348Z 14005KT 7SM SCT015 BKN250 28/25 A2987 RMK 8/508
過去の天気等 Google飛行場航空写真 Wunderground天気予報

過去48時間のMETAR

飛行場予報(TAF)
発表時間: 10/19 18:11 CDT (10/19 23:11 UTC)
予報対象時間: 19日19時 CDT ~ 21日1時 CDT
風向・風速東南東 6m/s
視程10km以上
全天の4割程度の雲 雲底高度 460m
全天の8割程度の雲 雲底高度 7620m
19日19時 CDT ~ 19日22時 CDT に一時的に
視程4830m
天気現象
全天の8割程度の積乱雲 雲底高度 300m
19日22時 CDT から
風向・風速東南東 5m/s
視程10km以上
全天の4割程度の雲 雲底高度 460m
20日10時 CDT から
風向・風速東南東 5m/s
視程10km以上
全天の8割程度の雲 雲底高度 460m
20日17時 CDT から
風向・風速東南東 8m/s
視程10km以上
全天の4割程度の雲 雲底高度 460m
全天の8割程度の雲 雲底高度 7620m
TAF MMUN 192311Z 2000/2106 12012KT P6SM SCT015 BKN250 TX30/2019Z TN26/2012Z
TEMPO 2000/2003 3SM RA BKN010CB
FM200300 12010KT P6SM SCT015
FM201500 12010KT P6SM BKN015
FM202200 12015KT P6SM SCT015 BKN250